Time;durP1;ratioP1;P1;durP2;ratioP2;P2;SDS_P1;SDS_P2;PMS_P1;PMS_P2;Temp;Humidity;BMP_temperature;BMP_pressure;BME280_temperature;BME280_humidity;BME280_pressure;Samples;Min_cycle;Max_cycle;Signal;HPM_P1;HPM_P2
2023/03/19 00:00:16;;;;;;;11.13;5.15;;;12.50;99.90;;;;;;5032284;28;20045;-62
2023/03/19 00:02:48;;;;;;;8.35;4.72;;;11.60;99.90;;;;;;5044777;28;20063;-61
2023/03/19 00:05:14;;;;;;;10.40;4.90;;;12.90;99.90;;;;;;5051957;28;20067;-61
2023/03/19 00:07:39;;;;;;;9.13;4.70;;;11.30;99.90;;;;;;5047155;28;20116;-61
2023/03/19 00:10:05;;;;;;;7.72;5.70;;;13.00;99.90;;;;;;5061968;28;20029;-61
2023/03/19 00:12:31;;;;;;;11.15;5.30;;;13.10;99.90;;;;;;5052020;28;20033;-61
2023/03/19 00:14:56;;;;;;;7.72;5.82;;;12.10;99.90;;;;;;5066960;28;20036;-61
2023/03/19 00:17:22;;;;;;;10.65;5.75;;;11.00;99.90;;;;;;5037740;28;20037;-61
2023/03/19 00:19:47;;;;;;;9.27;5.30;;;10.90;99.90;;;;;;5031604;28;20522;-61
2023/03/19 00:22:13;;;;;;;8.68;5.15;;;10.90;99.90;;;;;;5031773;28;20053;-61
2023/03/19 00:24:39;;;;;;;8.23;5.43;;;13.00;99.90;;;;;;5041090;28;20126;-61
2023/03/19 00:27:04;;;;;;;8.45;5.72;;;11.10;99.90;;;;;;5051531;28;20041;-61
2023/03/19 00:29:30;;;;;;;10.95;5.95;;;13.00;99.90;;;;;;5048269;28;20033;-62
2023/03/19 00:31:56;;;;;;;9.05;6.10;;;12.10;99.90;;;;;;5063958;28;20037;-61
2023/03/19 00:34:21;;;;;;;11.80;7.50;;;11.70;99.90;;;;;;5048885;28;20087;-61
2023/03/19 00:36:47;;;;;;;11.27;7.78;;;12.80;99.90;;;;;;5051621;28;20037;-61
2023/03/19 00:39:13;;;;;;;11.35;8.90;;;12.10;99.90;;;;;;5051142;28;20040;-61
2023/03/19 00:41:38;;;;;;;10.68;8.27;;;12.10;99.90;;;;;;5048343;28;20061;-61
2023/03/19 00:44:05;;;;;;;9.32;8.13;;;12.00;99.90;;;;;;5051338;28;20102;-61
2023/03/19 00:46:31;;;;;;;10.50;8.50;;;12.70;99.90;;;;;;5044406;28;20033;-61
2023/03/19 00:48:57;;;;;;;9.63;8.27;;;13.00;99.90;;;;;;5031060;28;20077;-61
2023/03/19 00:51:23;;;;;;;10.57;8.38;;;12.20;99.90;;;;;;5033164;28;20030;-61
2023/03/19 00:53:49;;;;;;;10.93;9.35;;;13.00;99.90;;;;;;5044792;28;20038;-61
2023/03/19 00:56:17;;;;;;;11.40;9.10;;;12.20;99.90;;;;;;5031639;28;20395;-61
2023/03/19 00:58:43;;;;;;;12.02;9.20;;;13.00;99.90;;;;;;5031484;28;20103;-61
2023/03/19 01:01:10;;;;;;;14.43;9.20;;;13.00;99.90;;;;;;5030908;28;20424;-61
2023/03/19 01:03:36;;;;;;;15.20;10.52;;;11.60;99.90;;;;;;5032271;28;20080;-61
2023/03/19 01:06:01;;;;;;;12.35;9.88;;;11.30;99.90;;;;;;5048319;28;20075;-61
2023/03/19 01:08:28;;;;;;;11.50;9.35;;;13.40;99.90;;;;;;5049616;28;20052;-62
2023/03/19 01:10:54;;;;;;;12.55;8.75;;;11.30;99.90;;;;;;5036545;28;20553;-62
2023/03/19 01:13:20;;;;;;;10.90;8.45;;;11.30;99.90;;;;;;5030647;28;20041;-62
2023/03/19 01:15:45;;;;;;;10.07;9.07;;;12.50;99.90;;;;;;5030826;28;20041;-62
2023/03/19 01:18:11;;;;;;;10.90;7.75;;;12.80;99.90;;;;;;5030920;28;20045;-61
2023/03/19 01:20:40;;;;;;;12.63;8.05;;;12.60;99.90;;;;;;5030678;28;20072;-61
2023/03/19 01:23:07;;;;;;;8.68;7.03;;;12.60;99.90;;;;;;5033327;28;20107;-62
2023/03/19 01:25:33;;;;;;;9.57;6.47;;;12.10;99.90;;;;;;5050845;28;20049;-62
2023/03/19 01:27:59;;;;;;;8.45;7.30;;;11.90;99.90;;;;;;5050074;28;20124;-61
2023/03/19 01:30:24;;;;;;;10.13;8.43;;;12.30;99.90;;;;;;5034755;28;20157;-62
2023/03/19 01:32:50;;;;;;;8.35;6.95;;;11.30;99.90;;;;;;5030957;28;20033;-62
2023/03/19 01:35:15;;;;;;;10.60;7.00;;;12.30;99.90;;;;;;5050720;28;20475;-62
2023/03/19 01:37:41;;;;;;;9.35;7.53;;;12.50;99.90;;;;;;5050955;28;20037;-61
2023/03/19 01:40:10;;;;;;;9.40;6.95;;;10.70;99.90;;;;;;5050962;28;20049;-62
2023/03/19 01:42:54;;;;;;;9.82;8.13;;;10.60;99.90;;;;;;5047408;28;20091;-62
2023/03/19 01:45:34;;;;;;;10.10;8.70;;;11.80;99.90;;;;;;5050184;28;20072;-61
2023/03/19 01:48:00;;;;;;;10.07;8.43;;;11.50;99.90;;;;;;5039884;28;20400;-62
2023/03/19 01:50:41;;;;;;;10.65;9.00;;;12.40;99.90;;;;;;5030571;28;20030;-62
2023/03/19 01:53:10;;;;;;;12.95;9.40;;;10.70;99.90;;;;;;5030630;28;20042;-61
2023/03/19 01:55:35;;;;;;;14.10;10.50;;;10.60;99.90;;;;;;5030073;28;20048;-61
2023/03/19 01:58:02;;;;;;;11.43;9.93;;;12.40;99.90;;;;;;5035727;28;20462;-62
2023/03/19 02:00:28;;;;;;;10.88;9.32;;;12.20;99.90;;;;;;5030438;28;20037;-62
2023/03/19 02:02:58;;;;;;;14.73;10.55;;;10.80;99.90;;;;;;5030370;28;20033;-62
2023/03/19 02:05:25;;;;;;;13.80;10.63;;;10.70;99.90;;;;;;5030563;28;20037;-62
2023/03/19 02:07:58;;;;;;;13.23;10.73;;;11.50;99.90;;;;;;5030764;28;20503;-62
2023/03/19 02:10:25;;;;;;;13.18;10.77;;;10.50;99.90;;;;;;5029380;28;20460;-62
2023/03/19 02:12:50;;;;;;;17.70;11.48;;;11.60;99.90;;;;;;5048281;28;20044;-62
2023/03/19 02:15:16;;;;;;;14.30;11.55;;;12.30;99.90;;;;;;5053022;28;20040;-61
2023/03/19 02:17:42;;;;;;;11.63;10.10;;;10.50;99.90;;;;;;5049398;28;20121;-62
2023/03/19 02:20:13;;;;;;;11.88;9.40;;;12.10;99.90;;;;;;5052113;28;20029;-62
2023/03/19 02:22:47;;;;;;;13.57;10.18;;;12.40;99.90;;;;;;5050796;28;20120;-62
2023/03/19 02:25:26;;;;;;;13.45;11.23;;;10.90;99.90;;;;;;5045899;28;20120;-62
2023/03/19 02:27:52;;;;;;;12.73;10.50;;;11.10;99.90;;;;;;5038457;28;20037;-62
2023/03/19 02:30:26;;;;;;;14.32;10.98;;;11.10;99.90;;;;;;5052716;28;20467;-62
2023/03/19 02:32:52;;;;;;;12.35;10.80;;;10.70;99.90;;;;;;5053661;28;20056;-62
2023/03/19 02:35:18;;;;;;;15.00;11.63;;;12.30;99.90;;;;;;5045252;28;20030;-62
2023/03/19 02:37:43;;;;;;;12.98;11.65;;;12.20;99.90;;;;;;5033120;28;20033;-62
2023/03/19 02:40:31;;;;;;;15.38;12.85;;;10.60;99.90;;;;;;5035697;28;20099;-62
2023/03/19 02:42:57;;;;;;;17.10;14.00;;;12.30;99.90;;;;;;5037849;28;20025;-62
2023/03/19 02:45:28;;;;;;;15.80;14.10;;;10.60;99.90;;;;;;5045041;28;20064;-62
2023/03/19 02:47:54;;;;;;;20.90;15.23;;;12.20;99.90;;;;;;5033477;28;20141;-62
2023/03/19 02:50:20;;;;;;;16.67;14.05;;;12.00;99.90;;;;;;5033432;28;20152;-62
2023/03/19 02:52:46;;;;;;;17.55;14.43;;;10.30;99.90;;;;;;5033770;28;20087;-62
2023/03/19 02:55:11;;;;;;;16.50;14.38;;;12.00;99.90;;;;;;5033339;28;20650;-62
2023/03/19 02:57:37;;;;;;;17.27;14.35;;;11.10;99.90;;;;;;5045621;28;20130;-62
2023/03/19 03:00:05;;;;;;;16.38;14.45;;;11.00;99.90;;;;;;5053219;28;20044;-62
2023/03/19 03:02:31;;;;;;;15.93;14.20;;;10.00;99.90;;;;;;5053292;28;20495;-62
2023/03/19 03:04:57;;;;;;;18.08;16.25;;;10.30;99.90;;;;;;5047529;28;20046;-62
2023/03/19 03:07:22;;;;;;;18.70;16.77;;;10.00;99.90;;;;;;5053412;28;20029;-62
2023/03/19 03:09:48;;;;;;;20.48;16.58;;;10.20;99.90;;;;;;5053102;28;20051;-62
2023/03/19 03:12:13;;;;;;;19.38;17.30;;;9.90;99.90;;;;;;5052668;28;20025;-62
2023/03/19 03:14:40;;;;;;;20.73;17.70;;;9.50;99.90;;;;;;5053079;28;20045;-62
2023/03/19 03:17:07;;;;;;;20.73;18.52;;;9.40;99.90;;;;;;5043383;28;20116;-62
2023/03/19 03:19:33;;;;;;;24.52;20.45;;;11.30;99.90;;;;;;5050472;28;20064;-62
2023/03/19 03:21:59;;;;;;;25.55;21.70;;;11.20;99.90;;;;;;5068373;28;20093;-61
2023/03/19 03:24:25;;;;;;;27.30;21.95;;;9.40;99.90;;;;;;5041365;28;20042;-62
2023/03/19 03:26:51;;;;;;;24.13;20.08;;;11.10;99.90;;;;;;5044333;28;20091;-62
2023/03/19 03:29:17;;;;;;;23.63;20.98;;;11.00;99.90;;;;;;5052787;28;20045;-62
2023/03/19 03:31:42;;;;;;;23.80;21.27;;;9.30;99.90;;;;;;5052758;28;20033;-62
2023/03/19 03:34:08;;;;;;;25.92;21.90;;;10.90;99.90;;;;;;5052408;28;20045;-61
2023/03/19 03:36:33;;;;;;;24.45;21.80;;;9.40;99.90;;;;;;5049777;28;20051;-61
2023/03/19 03:38:59;;;;;;;25.08;21.85;;;9.30;99.90;;;;;;5052374;28;20060;-62
2023/03/19 03:41:25;;;;;;;28.10;22.52;;;9.70;99.90;;;;;;5052085;28;20044;-62
2023/03/19 03:43:51;;;;;;;59.08;23.50;;;10.10;99.90;;;;;;5052514;28;20082;-62
2023/03/19 03:46:16;;;;;;;32.42;22.17;;;9.30;99.90;;;;;;5050688;28;20064;-62
2023/03/19 03:48:42;;;;;;;71.57;21.98;;;10.10;99.90;;;;;;5050961;28;20252;-62
2023/03/19 03:51:07;;;;;;;62.70;23.58;;;10.10;99.90;;;;;;5052250;28;20031;-62
2023/03/19 03:53:33;;;;;;;421.60;36.30;;;9.00;99.90;;;;;;5048892;28;20040;-61
2023/03/19 03:55:59;;;;;;;309.30;28.98;;;10.20;99.90;;;;;;5045885;28;20554;-61
2023/03/19 03:58:24;;;;;;;365.98;32.03;;;10.50;99.90;;;;;;5050235;28;20075;-61
2023/03/19 04:00:51;;;;;;;271.65;29.05;;;10.20;99.90;;;;;;5032205;28;20044;-61
2023/03/19 04:03:17;;;;;;;73.80;21.95;;;9.50;99.90;;;;;;5032106;28;20049;-62
2023/03/19 04:05:43;;;;;;;28.65;22.05;;;8.70;99.90;;;;;;5036289;28;20048;-62
2023/03/19 04:08:09;;;;;;;34.92;25.13;;;9.40;99.90;;;;;;5051559;28;20033;-61
2023/03/19 04:10:37;;;;;;;32.03;24.75;;;10.00;99.90;;;;;;5052224;28;20095;-62
2023/03/19 04:13:03;;;;;;;32.78;25.02;;;8.50;99.90;;;;;;5051381;28;20503;-62
2023/03/19 04:15:29;;;;;;;34.28;25.30;;;9.50;99.90;;;;;;5027658;28;20040;-61
2023/03/19 04:17:55;;;;;;;37.20;26.25;;;10.40;99.90;;;;;;5034207;28;20040;-61
2023/03/19 04:20:22;;;;;;;29.13;23.60;;;10.20;99.90;;;;;;5031440;28;20044;-61
2023/03/19 04:22:48;;;;;;;37.47;23.42;;;9.30;99.90;;;;;;5031787;28;20091;-61
2023/03/19 04:25:14;;;;;;;38.20;25.50;;;9.60;99.90;;;;;;5031909;28;20045;-61
2023/03/19 04:27:40;;;;;;;39.50;26.25;;;9.10;99.90;;;;;;5032641;28;20095;-61
2023/03/19 04:30:05;;;;;;;34.90;26.52;;;8.20;99.90;;;;;;5030334;28;20696;-61
2023/03/19 04:32:34;;;;;;;40.47;28.33;;;9.40;99.90;;;;;;5031735;28;20059;-62
2023/03/19 04:35:00;;;;;;;37.53;28.00;;;9.30;99.90;;;;;;5049258;28;20037;-61
2023/03/19 04:37:25;;;;;;;30.27;25.05;;;9.20;99.90;;;;;;5048247;28;20095;-61
2023/03/19 04:39:53;;;;;;;33.88;25.30;;;10.20;99.90;;;;;;5051694;28;20083;-62
2023/03/19 04:42:19;;;;;;;31.40;24.27;;;8.10;99.90;;;;;;5045943;28;20072;-61
2023/03/19 04:44:44;;;;;;;35.25;25.80;;;8.10;99.90;;;;;;5042934;28;20096;-62
2023/03/19 04:47:10;;;;;;;32.72;25.05;;;9.70;99.90;;;;;;5031464;28;20550;-61
2023/03/19 04:49:36;;;;;;;36.78;25.83;;;8.20;99.90;;;;;;5031123;28;20048;-61
2023/03/19 04:52:01;;;;;;;33.90;24.98;;;10.00;99.90;;;;;;5031994;28;20127;-62
2023/03/19 04:54:27;;;;;;;34.53;26.48;;;8.60;99.90;;;;;;5031122;28;20505;-61
2023/03/19 04:56:53;;;;;;;38.40;25.55;;;8.60;99.90;;;;;;5031099;28;20087;-61
2023/03/19 04:59:18;;;;;;;37.53;29.10;;;8.90;99.90;;;;;;5038377;28;20037;-61
2023/03/19 05:01:44;;;;;;;35.70;26.98;;;9.20;99.90;;;;;;5050814;28;20048;-61
2023/03/19 05:04:10;;;;;;;33.83;27.45;;;9.10;99.90;;;;;;5042104;28;20120;-62
2023/03/19 05:06:37;;;;;;;32.97;25.85;;;8.60;99.90;;;;;;5031294;28;20060;-62
2023/03/19 05:09:03;;;;;;;30.05;24.50;;;10.20;99.90;;;;;;5031188;28;20132;-62
2023/03/19 05:11:29;;;;;;;31.98;25.48;;;8.40;99.90;;;;;;5035791;28;20029;-62
2023/03/19 05:13:55;;;;;;;28.58;23.02;;;10.00;99.90;;;;;;5040164;28;20040;-62
2023/03/19 05:16:21;;;;;;;32.92;25.15;;;9.70;99.90;;;;;;5051368;28;20048;-62
2023/03/19 05:18:47;;;;;;;30.42;25.20;;;8.20;99.90;;;;;;5046738;28;20045;-61
2023/03/19 05:21:13;;;;;;;36.15;25.55;;;10.00;99.90;;;;;;5049494;28;20060;-61
2023/03/19 05:23:39;;;;;;;32.60;24.05;;;8.40;99.90;;;;;;5049487;28;20124;-62
2023/03/19 05:26:08;;;;;;;38.15;27.17;;;8.10;99.90;;;;;;5045756;28;20180;-61
2023/03/19 05:28:34;;;;;;;41.05;26.38;;;9.80;99.90;;;;;;5030807;28;20132;-62
2023/03/19 05:31:00;;;;;;;37.28;26.55;;;8.10;99.90;;;;;;5048760;28;20197;-61
2023/03/19 05:33:25;;;;;;;38.50;26.67;;;8.30;99.90;;;;;;5050300;28;20094;-62
2023/03/19 05:35:51;;;;;;;41.33;27.50;;;8.10;99.90;;;;;;5031198;28;20052;-61
2023/03/19 05:38:18;;;;;;;41.45;27.10;;;9.00;99.90;;;;;;5029861;28;20525;-61
2023/03/19 05:40:43;;;;;;;39.72;26.33;;;8.10;99.90;;;;;;5043816;28;20127;-61
2023/03/19 05:43:10;;;;;;;49.20;27.95;;;8.00;99.90;;;;;;5030733;28;20083;-61
2023/03/19 05:45:36;;;;;;;51.92;29.02;;;8.20;99.90;;;;;;5031713;28;20521;-61
2023/03/19 05:48:03;;;;;;;49.58;28.60;;;9.70;99.90;;;;;;5037842;28;20040;-62
2023/03/19 05:50:30;;;;;;;42.05;26.83;;;8.60;99.90;;;;;;5053800;28;20033;-62
2023/03/19 05:52:56;;;;;;;45.67;26.88;;;8.40;99.90;;;;;;5054804;28;20127;-61
2023/03/19 05:55:22;;;;;;;43.15;27.58;;;8.10;99.90;;;;;;5043550;28;20425;-61
2023/03/19 05:57:47;;;;;;;39.75;24.85;;;9.70;99.90;;;;;;5054669;28;20107;-61
2023/03/19 06:00:14;;;;;;;39.60;26.15;;;9.10;99.90;;;;;;5054044;28;20033;-61
2023/03/19 06:02:41;;;;;;;40.17;25.08;;;8.30;99.90;;;;;;5054459;28;20044;-61
2023/03/19 06:05:08;;;;;;;38.90;24.05;;;8.30;99.90;;;;;;5050657;28;20033;-61
2023/03/19 06:07:35;;;;;;;47.00;23.85;;;8.60;99.90;;;;;;5052212;28;20411;-61
2023/03/19 06:10:00;;;;;;;46.42;25.02;;;9.60;99.90;;;;;;5054509;28;20076;-61
2023/03/19 06:12:26;;;;;;;41.25;23.00;;;8.40;99.90;;;;;;5054269;28;20076;-61
2023/03/19 06:14:52;;;;;;;40.90;22.90;;;10.30;99.90;;;;;;5046499;28;20033;-62
2023/03/19 06:17:17;;;;;;;53.00;25.75;;;9.50;99.90;;;;;;5052439;28;20033;-62
2023/03/19 06:19:43;;;;;;;50.67;26.55;;;8.50;99.90;;;;;;5046450;28;20108;-61
2023/03/19 06:22:09;;;;;;;84.90;27.23;;;8.50;99.90;;;;;;5034191;28;20523;-61
2023/03/19 06:24:35;;;;;;;54.30;26.30;;;8.70;99.90;;;;;;5038170;28;20091;-62
2023/03/19 06:27:01;;;;;;;64.30;27.20;;;9.50;99.90;;;;;;5049245;28;20045;-61
2023/03/19 06:29:27;;;;;;;57.28;26.95;;;10.70;99.90;;;;;;5046018;28;20053;-61
2023/03/19 06:31:52;;;;;;;57.08;27.63;;;10.00;99.90;;;;;;5053778;28;20112;-61
2023/03/19 06:34:18;;;;;;;80.25;35.00;;;10.80;99.90;;;;;;5044671;28;20113;-62
2023/03/19 06:36:44;;;;;;;81.55;36.50;;;9.20;99.90;;;;;;5032423;28;20048;-61
2023/03/19 06:39:10;;;;;;;92.03;39.70;;;10.30;99.90;;;;;;5032633;28;20044;-62
2023/03/19 06:41:36;;;;;;;93.95;41.28;;;9.20;99.90;;;;;;5033468;28;20038;-62
2023/03/19 06:44:02;;;;;;;92.18;41.53;;;9.80;99.90;;;;;;5047092;28;20078;-62
2023/03/19 06:46:28;;;;;;;112.72;46.00;;;9.30;99.90;;;;;;5052284;28;20457;-62
2023/03/19 06:48:53;;;;;;;118.53;47.00;;;10.80;99.90;;;;;;5051153;28;20090;-62
2023/03/19 06:51:19;;;;;;;129.45;46.80;;;9.40;99.90;;;;;;5033804;28;20037;-62
2023/03/19 06:53:45;;;;;;;136.63;45.30;;;10.60;99.90;;;;;;5045470;28;20124;-61
2023/03/19 06:56:11;;;;;;;153.90;41.22;;;10.50;99.90;;;;;;5053078;28;20488;-61
2023/03/19 06:58:36;;;;;;;123.65;37.33;;;11.30;99.90;;;;;;5052281;28;20086;-62
2023/03/19 07:01:03;;;;;;;199.30;40.53;;;10.90;99.90;;;;;;5053247;28;20098;-61
2023/03/19 07:03:28;;;;;;;253.85;39.60;;;10.70;99.90;;;;;;5048576;28;20059;-62
2023/03/19 07:05:54;;;;;;;346.65;41.45;;;9.40;99.90;;;;;;5032144;28;20037;-62
2023/03/19 07:08:20;;;;;;;288.42;38.17;;;9.20;99.90;;;;;;5045787;28;20215;-62
2023/03/19 07:10:46;;;;;;;372.80;40.78;;;9.20;99.90;;;;;;5044606;28;20040;-61
2023/03/19 07:13:11;;;;;;;294.38;32.17;;;9.20;99.90;;;;;;5049601;28;20044;-62
2023/03/19 07:15:37;;;;;;;248.15;30.88;;;10.80;99.90;;;;;;5050463;28;20064;-62
2023/03/19 07:18:03;;;;;;;194.32;26.33;;;10.50;99.90;;;;;;5049318;28;20084;-61
2023/03/19 07:20:28;;;;;;;195.48;26.67;;;11.10;99.90;;;;;;5037026;28;20042;-61
2023/03/19 07:22:54;;;;;;;151.38;24.95;;;9.40;99.90;;;;;;5036837;28;20076;-61
2023/03/19 07:25:20;;;;;;;140.45;24.25;;;10.00;99.90;;;;;;5038944;28;20044;-61
2023/03/19 07:27:46;;;;;;;108.75;20.88;;;9.80;99.90;;;;;;5035159;28;20120;-61
2023/03/19 07:30:13;;;;;;;71.35;18.33;;;10.80;99.90;;;;;;5035125;28;20159;-61
2023/03/19 07:32:39;;;;;;;174.73;26.33;;;9.80;99.90;;;;;;5040878;28;20504;-61
2023/03/19 07:35:09;;;;;;;37.03;15.48;;;8.90;99.90;;;;;;5039909;28;20041;-61
2023/03/19 07:37:35;;;;;;;54.20;16.98;;;10.60;99.90;;;;;;5045706;28;20052;-61
2023/03/19 07:40:01;;;;;;;60.78;19.05;;;10.30;99.90;;;;;;5046980;28;20163;-61
2023/03/19 07:42:27;;;;;;;80.55;19.23;;;10.10;99.90;;;;;;5041465;28;20049;-61
2023/03/19 07:44:52;;;;;;;86.63;18.52;;;9.10;99.90;;;;;;5035644;28;20041;-61
2023/03/19 07:47:18;;;;;;;87.57;20.55;;;9.70;99.90;;;;;;5046224;28;20366;-61
2023/03/19 07:49:43;;;;;;;45.40;17.20;;;10.60;99.90;;;;;;5046603;28;20087;-61
2023/03/19 07:52:09;;;;;;;44.40;17.58;;;9.80;99.90;;;;;;5041591;28;20056;-61
2023/03/19 07:54:35;;;;;;;48.35;17.50;;;9.10;99.90;;;;;;5047204;28;20090;-61
2023/03/19 07:57:01;;;;;;;38.78;17.33;;;11.20;99.90;;;;;;5048311;28;20036;-61
2023/03/19 07:59:26;;;;;;;74.38;19.83;;;10.70;99.90;;;;;;5037466;28;20060;-61
2023/03/19 08:01:52;;;;;;;38.53;15.82;;;9.00;99.90;;;;;;5033573;28;20174;-61
2023/03/19 08:04:17;;;;;;;89.55;21.20;;;11.20;99.90;;;;;;5033485;28;20065;-61
2023/03/19 08:06:43;;;;;;;51.17;19.05;;;9.10;99.90;;;;;;5034468;28;20112;-61
2023/03/19 08:09:09;;;;;;;61.75;19.67;;;9.20;99.90;;;;;;5040561;28;20038;-61
2023/03/19 08:11:35;;;;;;;60.58;19.02;;;11.30;99.90;;;;;;5037027;28;20116;-61
2023/03/19 08:14:01;;;;;;;84.80;20.80;;;11.30;99.90;;;;;;5039263;28;20091;-61
2023/03/19 08:16:27;;;;;;;100.15;23.02;;;9.40;99.90;;;;;;5030940;28;20076;-61
2023/03/19 08:18:53;;;;;;;75.18;20.17;;;10.60;99.90;;;;;;5034020;28;20084;-61
2023/03/19 08:21:18;;;;;;;93.85;22.02;;;9.80;99.90;;;;;;5032746;28;20050;-61
2023/03/19 08:23:44;;;;;;;58.17;18.63;;;11.20;99.90;;;;;;5031554;28;20045;-61
2023/03/19 08:26:10;;;;;;;58.70;18.63;;;11.40;99.90;;;;;;5031701;28;20045;-61
2023/03/19 08:28:36;;;;;;;77.20;21.65;;;11.30;99.90;;;;;;5038716;28;20037;-61
2023/03/19 08:31:08;;;;;;;120.97;22.67;;;9.30;99.90;;;;;;5039148;28;20112;-61
2023/03/19 08:33:33;;;;;;;84.13;19.40;;;9.90;99.90;;;;;;5051292;28;20076;-61
2023/03/19 08:36:10;;;;;;;49.75;16.98;;;10.10;99.90;;;;;;5046348;28;20057;-61
2023/03/19 08:38:36;;;;;;;99.80;19.98;;;10.00;99.90;;;;;;5040804;28;20041;-61
2023/03/19 08:41:03;;;;;;;70.28;17.88;;;9.50;99.90;;;;;;5038855;28;20399;-61
2023/03/19 08:43:30;;;;;;;77.20;16.77;;;11.50;99.90;;;;;;5043373;28;20060;-61
2023/03/19 08:45:55;;;;;;;70.40;19.08;;;11.10;99.90;;;;;;5037272;28;20049;-60
2023/03/19 08:48:21;;;;;;;66.57;18.23;;;11.40;99.90;;;;;;5049110;28;20633;-61
2023/03/19 08:51:01;;;;;;;76.90;19.15;;;9.30;99.90;;;;;;5050750;28;20463;-61
2023/03/19 08:53:28;;;;;;;55.65;17.85;;;10.90;99.90;;;;;;5033276;28;20454;-61
2023/03/19 08:55:55;;;;;;;84.38;20.25;;;10.00;99.90;;;;;;5031547;28;20037;-61
2023/03/19 08:58:21;;;;;;;86.75;19.23;;;9.60;99.90;;;;;;5041410;28;20041;-61
2023/03/19 09:00:47;;;;;;;56.30;17.77;;;11.60;99.90;;;;;;5051225;28;20498;-61
2023/03/19 09:03:14;;;;;;;55.92;17.65;;;11.80;99.90;;;;;;5051078;28;20036;-61
2023/03/19 09:05:40;;;;;;;53.40;16.48;;;9.80;99.90;;;;;;5048591;28;20048;-61
2023/03/19 09:08:06;;;;;;;71.85;17.45;;;9.80;99.90;;;;;;5046139;28;20033;-61
2023/03/19 09:10:31;;;;;;;89.28;17.67;;;11.40;99.90;;;;;;5052925;28;20542;-61
2023/03/19 09:12:57;;;;;;;72.75;16.05;;;9.40;99.90;;;;;;5044064;28;20303;-61
2023/03/19 09:15:23;;;;;;;83.45;16.58;;;11.80;99.90;;;;;;5041675;28;20041;-61
2023/03/19 09:17:49;;;;;;;51.92;15.60;;;10.90;99.90;;;;;;5040750;28;20044;-61
2023/03/19 09:20:14;;;;;;;43.97;16.15;;;11.90;99.90;;;;;;5045990;28;20041;-61
2023/03/19 09:22:40;;;;;;;45.60;14.73;;;12.00;99.90;;;;;;5037798;28;20060;-61
2023/03/19 09:25:06;;;;;;;51.58;16.00;;;10.80;99.90;;;;;;5044502;28;20044;-60
2023/03/19 09:27:32;;;;;;;42.50;13.77;;;11.80;99.90;;;;;;5031326;28;20077;-59
2023/03/19 09:29:58;;;;;;;39.42;14.57;;;9.60;99.90;;;;;;5039041;28;20079;-59
2023/03/19 09:32:23;;;;;;;36.40;14.15;;;10.30;99.90;;;;;;5040296;28;20037;-59
2023/03/19 09:34:49;;;;;;;44.60;16.60;;;10.20;99.90;;;;;;5034173;28;20065;-59
2023/03/19 09:37:14;;;;;;;49.38;16.90;;;12.30;99.90;;;;;;5032233;28;20467;-61
2023/03/19 09:39:40;;;;;;;36.65;15.77;;;11.50;99.90;;;;;;5033762;28;20029;-61
2023/03/19 09:42:14;;;;;;;28.80;12.70;;;12.00;99.90;;;;;;5048743;28;20175;-61
2023/03/19 09:44:44;;;;;;;34.50;14.13;;;12.50;99.90;;;;;;5049415;28;20510;-61
2023/03/19 09:47:28;;;;;;;32.40;13.75;;;11.10;99.90;;;;;;5036011;28;20052;-61
2023/03/19 09:49:57;;;;;;;41.88;15.55;;;10.20;99.90;;;;;;5043970;28;20108;-61
2023/03/19 09:52:43;;;;;;;41.83;16.35;;;11.90;99.90;;;;;;5050526;28;20037;-61
2023/03/19 09:55:15;;;;;;;38.78;16.42;;;10.90;99.90;;;;;;5042360;28;20099;-61
2023/03/19 09:57:40;;;;;;;38.72;16.52;;;10.90;99.90;;;;;;5034739;28;20044;-61
2023/03/19 10:00:26;;;;;;;36.10;16.33;;;10.50;99.90;;;;;;5044268;28;20048;-61
2023/03/19 10:03:32;;;;;;;45.42;18.23;;;10.30;99.90;;;;;;5030465;28;20049;-61
2023/03/19 10:06:25;;;;;;;44.50;17.88;;;12.60;99.90;;;;;;5018135;28;20064;-61
2023/03/19 10:08:57;;;;;;;38.42;17.67;;;11.00;99.90;;;;;;5030527;28;20176;-61
2023/03/19 10:11:58;;;;;;;41.72;19.40;;;10.60;99.90;;;;;;5033135;28;20880;-61
2023/03/19 10:14:55;;;;;;;33.80;17.23;;;13.10;99.90;;;;;;5050474;28;20616;-61
2023/03/19 10:17:32;;;;;;;46.97;21.65;;;11.20;99.90;;;;;;5038666;28;20040;-61
2023/03/19 10:20:16;;;;;;;49.25;21.67;;;10.70;99.90;;;;;;5048907;28;20045;-61
2023/03/19 10:22:53;;;;;;;56.05;24.30;;;11.40;99.90;;;;;;5029006;28;20531;-61
2023/03/19 10:25:23;;;;;;;53.58;22.85;;;13.00;99.90;;;;;;5030339;28;20048;-61
2023/03/19 10:28:18;;;;;;;45.20;21.48;;;13.00;99.90;;;;;;5035110;28;20116;-61
2023/03/19 10:31:04;;;;;;;42.53;19.92;;;10.40;99.90;;;;;;5044883;28;20038;-61
2023/03/19 10:33:49;;;;;;;43.30;19.53;;;11.20;99.90;;;;;;5043183;28;20036;-61
2023/03/19 10:36:18;;;;;;;39.38;18.70;;;12.80;99.90;;;;;;5040363;28;20077;-61
2023/03/19 10:38:43;;;;;;;35.05;19.00;;;13.10;99.90;;;;;;5047264;28;20041;-61
2023/03/19 10:41:42;;;;;;;31.38;17.00;;;12.70;99.90;;;;;;5054025;28;20035;-61
2023/03/19 10:44:26;;;;;;;36.90;18.10;;;10.70;99.90;;;;;;5053529;28;20073;-61
2023/03/19 10:46:51;;;;;;;31.30;16.17;;;11.50;99.90;;;;;;5059294;28;20147;-61
2023/03/19 10:49:17;;;;;;;35.85;17.80;;;12.10;99.90;;;;;;5057590;28;20505;-61
2023/03/19 10:51:45;;;;;;;30.98;16.40;;;10.70;99.90;;;;;;5039727;28;20045;-61
2023/03/19 10:54:21;;;;;;;32.65;17.15;;;12.90;99.90;;;;;;5038553;28;20487;-61
2023/03/19 10:56:48;;;;;;;29.23;15.38;;;13.60;99.90;;;;;;5053897;28;20037;-61
2023/03/19 10:59:45;;;;;;;34.78;18.55;;;10.90;99.90;;;;;;5050081;28;20057;-61
2023/03/19 11:02:22;;;;;;;33.55;17.63;;;13.60;99.90;;;;;;5036927;28;20177;-61
2023/03/19 11:04:48;;;;;;;;;;;13.70;99.90;;;;;;5033815;28;20045;-61
2023/03/19 11:07:19;;;;;;;38.63;19.67;;;12.10;99.90;;;;;;5048027;28;20316;-61
2023/03/19 11:09:49;;;;;;;41.05;20.35;;;11.90;99.90;;;;;;5045109;28;20045;-61
2023/03/19 11:12:20;;;;;;;37.95;20.23;;;13.60;99.90;;;;;;5053215;28;20120;-61
2023/03/19 11:14:55;;;;;;;35.42;18.83;;;11.90;99.90;;;;;;5053282;28;20131;-61
2023/03/19 11:17:37;;;;;;;42.88;19.33;;;11.30;99.90;;;;;;5053225;28;20029;-61
2023/03/19 11:20:22;;;;;;;34.08;17.83;;;14.10;99.90;;;;;;5039566;28;20041;-61
2023/03/19 11:22:51;;;;;;;40.13;20.48;;;13.50;99.90;;;;;;5047303;28;20057;-61
2023/03/19 11:25:24;;;;;;;36.63;18.55;;;13.30;99.90;;;;;;5041101;28;20079;-61
2023/03/19 11:28:00;;;;;;;36.03;19.52;;;13.90;99.90;;;;;;5040447;28;20052;-61
2023/03/19 11:30:30;;;;;;;;;;;11.20;99.90;;;;;;5044023;28;20033;-61
2023/03/19 11:33:12;;;;;;;38.28;20.50;;;12.20;99.90;;;;;;5052783;28;19921;-61
2023/03/19 11:35:48;;;;;;;38.92;21.27;;;11.30;99.90;;;;;;5052622;28;20076;-61
2023/03/19 11:38:37;;;;;;;40.28;20.58;;;11.30;99.90;;;;;;5052833;28;20214;-61
2023/03/19 11:41:29;;;;;;;36.05;20.55;;;14.10;99.90;;;;;;5049906;28;20049;-61
2023/03/19 11:44:26;;;;;;;43.42;23.00;;;11.30;99.90;;;;;;5052348;28;20098;-61
2023/03/19 11:47:03;;;;;;;44.05;22.83;;;13.40;99.90;;;;;;5052743;28;20041;-61
2023/03/19 11:49:48;;;;;;;46.72;24.60;;;11.00;99.90;;;;;;5049334;28;20052;-61
2023/03/19 11:52:23;;;;;;;47.72;26.27;;;11.20;99.90;;;;;;5045632;28;20041;-61
2023/03/19 11:55:09;;;;;;;44.13;25.92;;;11.30;99.90;;;;;;5034805;28;20160;-61
2023/03/19 11:57:46;;;;;;;48.38;26.10;;;11.70;99.90;;;;;;5037495;28;20433;-61
2023/03/19 12:00:17;;;;;;;53.30;27.90;;;13.90;99.90;;;;;;5052097;28;20045;-61
2023/03/19 12:02:50;;;;;;;45.72;26.95;;;11.40;99.90;;;;;;5047260;28;20033;-61
2023/03/19 12:05:26;;;;;;;49.22;27.52;;;12.10;99.90;;;;;;5031986;28;20047;-61
2023/03/19 12:08:16;;;;;;;44.92;27.33;;;12.70;99.90;;;;;;5051214;28;20033;-61
2023/03/19 12:10:55;;;;;;;54.05;28.48;;;13.20;99.90;;;;;;5036516;28;20079;-61
2023/03/19 12:13:32;;;;;;;53.75;30.88;;;13.70;99.90;;;;;;5052214;28;20037;-60
2023/03/19 12:16:13;;;;;;;45.05;28.20;;;11.50;99.90;;;;;;5051880;28;20044;-61
2023/03/19 12:19:04;;;;;;;55.47;31.92;;;14.30;99.90;;;;;;5050665;28;20047;-61
2023/03/19 12:21:39;;;;;;;50.08;29.67;;;11.70;99.90;;;;;;5032737;28;20072;-61
2023/03/19 12:24:17;;;;;;;51.80;31.83;;;13.80;99.90;;;;;;5039920;28;20088;-61
2023/03/19 12:27:08;;;;;;;58.67;33.28;;;13.70;99.90;;;;;;5051656;28;20094;-61
2023/03/19 12:29:42;;;;;;;51.67;31.23;;;14.00;99.90;;;;;;5030872;28;20079;-61
2023/03/19 12:32:16;;;;;;;59.30;35.25;;;14.40;99.90;;;;;;5034107;28;20043;-61
2023/03/19 12:34:46;;;;;;;53.95;33.13;;;13.60;99.90;;;;;;5031737;28;20038;-61
2023/03/19 12:37:40;;;;;;;48.13;28.05;;;13.90;99.90;;;;;;5031698;28;20135;-61
2023/03/19 12:40:42;;;;;;;44.50;25.48;;;13.90;99.90;;;;;;5047106;28;20052;-61